Time;durP1;ratioP1;P1;durP2;ratioP2;P2;SDS_P1;SDS_P2;PMS_P1;PMS_P2;Temp;Humidity;BMP_temperature;BMP_pressure;BME280_temperature;BME280_humidity;BME280_pressure;Samples;Min_cycle;Max_cycle;Signal;HPM_P1;HPM_P2
2022/05/03 00:00:03;;;;;;;15.07;11.30;;;;;;;;;;5138481;27;20034;-82
2022/05/03 00:02:29;;;;;;;12.82;10.68;;;;;;;;;;5138577;27;20119;-81
2022/05/03 00:05:01;;;;;;;14.98;11.43;;;;;;;;;;5133634;27;20031;-81
2022/05/03 00:07:27;;;;;;;16.27;11.25;;;;;;;;;;5138319;27;20102;-81
2022/05/03 00:09:53;;;;;;;14.38;11.38;;;;;;;;;;5136753;27;20354;-81
2022/05/03 00:12:21;;;;;;;15.35;11.45;;;;;;;;;;5137731;27;20073;-81
2022/05/03 00:14:50;;;;;;;15.10;11.82;;;;;;;;;;5136611;27;20027;-81
2022/05/03 00:17:22;;;;;;;13.45;10.43;;;;;;;;;;5135935;27;20019;-81
2022/05/03 00:19:48;;;;;;;13.02;10.55;;;;;;;;;;5130932;27;20019;-81
2022/05/03 00:22:14;;;;;;;16.45;10.88;;;;;;;;;;5117545;28;20027;-81
2022/05/03 00:24:44;;;;;;;15.07;11.45;;;;;;;;;;5116842;28;20032;-81
2022/05/03 00:27:10;;;;;;;16.98;11.50;;;;;;;;;;5116022;28;20061;-82
2022/05/03 00:29:36;;;;;;;13.98;11.02;;;;;;;;;;5119850;28;20024;-82
2022/05/03 00:32:03;;;;;;;14.63;11.07;;;;;;;;;;5137444;27;20394;-82
2022/05/03 00:34:33;;;;;;;13.65;11.57;;;;;;;;;;5137546;27;20023;-81
2022/05/03 00:36:59;;;;;;;14.52;11.55;;;;;;;;;;5136192;27;20056;-81
2022/05/03 00:39:25;;;;;;;14.32;11.20;;;;;;;;;;5137693;28;20517;-81
2022/05/03 00:41:57;;;;;;;13.23;10.75;;;;;;;;;;5137321;28;20125;-81
2022/05/03 00:47:19;;;;;;;15.95;11.57;;;;;;;;;;5137865;28;20057;-82
2022/05/03 00:49:52;;;;;;;14.40;11.35;;;;;;;;;;5120393;28;20023;-81
2022/05/03 00:52:28;;;;;;;14.32;11.05;;;;;;;;;;5115719;28;20024;-81
2022/05/03 00:55:08;;;;;;;12.68;10.18;;;;;;;;;;5116762;28;20072;-81
2022/05/03 00:57:42;;;;;;;13.18;10.85;;;;;;;;;;5127578;28;20054;-81
2022/05/03 01:00:10;;;;;;;15.00;11.32;;;;;;;;;;5135319;28;20034;-82
2022/05/03 01:02:39;;;;;;;15.40;12.45;;;;;;;;;;5137493;28;20028;-81
2022/05/03 01:05:06;;;;;;;15.02;11.98;;;;;;;;;;5136295;28;20061;-81
2022/05/03 01:07:36;;;;;;;13.85;10.57;;;;;;;;;;5126240;27;20020;-81
2022/05/03 01:10:05;;;;;;;13.00;10.75;;;;;;;;;;5116713;28;20075;-80
2022/05/03 01:12:46;;;;;;;15.10;11.40;;;;;;;;;;5116279;28;20055;-81
2022/05/03 01:15:15;;;;;;;14.68;11.45;;;;;;;;;;5116093;28;20020;-81
2022/05/03 01:17:53;;;;;;;13.05;10.88;;;;;;;;;;5127882;28;20027;-82
2022/05/03 01:20:40;;;;;;;13.50;10.45;;;;;;;;;;5137655;28;20060;-81
2022/05/03 01:23:25;;;;;;;13.90;11.05;;;;;;;;;;5135398;28;20027;-81
2022/05/03 01:25:51;;;;;;;13.05;10.63;;;;;;;;;;5137128;27;20023;-81
2022/05/03 01:28:29;;;;;;;13.45;10.68;;;;;;;;;;5135978;27;20049;-81
2022/05/03 01:30:57;;;;;;;13.30;9.73;;;;;;;;;;5140947;27;20561;-81
2022/05/03 01:33:31;;;;;;;14.00;10.93;;;;;;;;;;5139516;27;20041;-81
2022/05/03 01:35:59;;;;;;;12.50;9.80;;;;;;;;;;5140484;27;20102;-81
2022/05/03 01:38:35;;;;;;;12.65;10.88;;;;;;;;;;5123973;27;20598;-81
2022/05/03 01:41:11;;;;;;;13.35;10.32;;;;;;;;;;5141109;27;20027;-81
2022/05/03 01:43:52;;;;;;;12.20;9.48;;;;;;;;;;5140192;27;20019;-81
2022/05/03 01:46:28;;;;;;;11.48;8.93;;;;;;;;;;5139440;27;20057;-81
2022/05/03 01:51:50;;;;;;;14.43;9.25;;;;;;;;;;5140213;27;20038;-81
2022/05/03 01:54:28;;;;;;;12.48;8.50;;;;;;;;;;5139061;27;20027;-81
2022/05/03 01:57:17;;;;;;;11.73;8.60;;;;;;;;;;5133244;27;20099;-81
2022/05/03 02:00:13;;;;;;;11.65;9.20;;;;;;;;;;5117367;28;20042;-81
2022/05/03 02:02:56;;;;;;;13.15;10.48;;;;;;;;;;5114444;28;20051;-81
2022/05/03 02:05:22;;;;;;;11.55;8.77;;;;;;;;;;5119527;28;20471;-81
2022/05/03 02:07:55;;;;;;;11.25;8.82;;;;;;;;;;5133495;27;20019;-81
2022/05/03 02:10:40;;;;;;;11.65;8.95;;;;;;;;;;5138822;27;20019;-80
2022/05/03 02:13:29;;;;;;;11.68;9.35;;;;;;;;;;5138994;27;20146;-81
2022/05/03 02:15:59;;;;;;;10.88;8.57;;;;;;;;;;5130128;27;20058;-81
2022/05/03 02:18:44;;;;;;;12.82;9.60;;;;;;;;;;5120976;27;20031;-81
2022/05/03 02:21:18;;;;;;;12.18;9.10;;;;;;;;;;5121212;28;20607;-81
2022/05/03 02:24:04;;;;;;;12.10;9.40;;;;;;;;;;5124445;28;20043;-79
2022/05/03 02:26:37;;;;;;;11.52;9.43;;;;;;;;;;5140054;27;20038;-78
2022/05/03 02:29:15;;;;;;;11.32;9.38;;;;;;;;;;5139940;28;20329;-80
2022/05/03 02:31:56;;;;;;;13.68;10.70;;;;;;;;;;5139618;28;20011;-79
2022/05/03 02:34:32;;;;;;;13.52;10.68;;;;;;;;;;5139736;28;20023;-79
2022/05/03 02:37:11;;;;;;;13.55;10.23;;;;;;;;;;5139785;28;20034;-79
2022/05/03 02:39:38;;;;;;;13.23;10.15;;;;;;;;;;5134348;28;20038;-79
2022/05/03 02:42:06;;;;;;;11.70;9.18;;;;;;;;;;5119612;28;20406;-82
2022/05/03 02:44:34;;;;;;;11.85;9.57;;;;;;;;;;5119817;28;20027;-81
2022/05/03 02:47:09;;;;;;;11.60;9.68;;;;;;;;;;5121275;28;20023;-81
2022/05/03 02:49:54;;;;;;;12.57;10.10;;;;;;;;;;5119919;28;20026;-81
2022/05/03 02:52:26;;;;;;;11.75;9.40;;;;;;;;;;5119640;28;20016;-81
2022/05/03 02:54:58;;;;;;;14.45;11.15;;;;;;;;;;5119998;27;20040;-82
2022/05/03 02:57:43;;;;;;;14.43;11.35;;;;;;;;;;5119850;28;20012;-82
2022/05/03 03:03:13;;;;;;;12.90;10.65;;;;;;;;;;5124796;27;20099;-82
2022/05/03 03:05:42;;;;;;;15.27;10.90;;;;;;;;;;5119678;28;20023;-82
2022/05/03 03:08:12;;;;;;;14.82;11.32;;;;;;;;;;5134635;28;20015;-82
2022/05/03 03:10:59;;;;;;;13.93;10.45;;;;;;;;;;5125992;28;20015;-82
2022/05/03 03:13:37;;;;;;;14.18;10.90;;;;;;;;;;5131813;27;20099;-79
2022/05/03 03:16:06;;;;;;;13.70;10.35;;;;;;;;;;5138633;28;20008;-79
2022/05/03 03:18:34;;;;;;;12.45;10.20;;;;;;;;;;5137823;28;20023;-79
2022/05/03 03:21:06;;;;;;;18.35;11.10;;;;;;;;;;5138313;27;20089;-79
2022/05/03 03:23:34;;;;;;;14.68;10.88;;;;;;;;;;5141139;27;20011;-81
2022/05/03 03:26:01;;;;;;;15.25;10.18;;;;;;;;;;5143498;27;20033;-82
2022/05/03 03:28:29;;;;;;;13.07;9.70;;;;;;;;;;5139283;27;20379;-82
2022/05/03 03:30:56;;;;;;;14.82;10.05;;;;;;;;;;5139103;27;20019;-82
2022/05/03 03:33:22;;;;;;;13.27;10.32;;;;;;;;;;5136350;27;20967;-82
2022/05/03 03:35:48;;;;;;;11.77;9.68;;;;;;;;;;5121309;27;20031;-82
2022/05/03 03:38:15;;;;;;;13.00;10.07;;;;;;;;;;5139008;27;20019;-82
2022/05/03 03:40:45;;;;;;;14.38;10.43;;;;;;;;;;5138481;27;20015;-82
2022/05/03 03:43:11;;;;;;;13.15;9.98;;;;;;;;;;5138067;27;20635;-82
2022/05/03 03:45:37;;;;;;;13.93;9.48;;;;;;;;;;5130502;27;20020;-82
2022/05/03 03:48:05;;;;;;;11.45;9.15;;;;;;;;;;5116910;28;20069;-82
2022/05/03 03:50:31;;;;;;;13.15;9.82;;;;;;;;;;5118324;28;20039;-82
2022/05/03 03:52:57;;;;;;;12.55;9.20;;;;;;;;;;5117778;28;20019;-82
2022/05/03 03:55:23;;;;;;;11.95;9.30;;;;;;;;;;5136971;27;20047;-82
2022/05/03 03:57:50;;;;;;;13.77;10.65;;;;;;;;;;5136974;27;20026;-81
2022/05/03 04:00:17;;;;;;;14.05;9.77;;;;;;;;;;5136404;27;20105;-81
2022/05/03 04:02:46;;;;;;;12.63;9.68;;;;;;;;;;5138540;27;20402;-81
2022/05/03 04:05:23;;;;;;;14.15;10.40;;;;;;;;;;5134371;27;20019;-82
2022/05/03 04:07:49;;;;;;;13.23;10.52;;;;;;;;;;5138824;27;20113;-81
2022/05/03 04:10:16;;;;;;;11.90;9.45;;;;;;;;;;5138211;27;20023;-82
2022/05/03 04:12:42;;;;;;;14.75;11.45;;;;;;;;;;5138737;27;20080;-82
2022/05/03 04:15:09;;;;;;;14.07;10.10;;;;;;;;;;5121494;27;20031;-82
2022/05/03 04:17:35;;;;;;;13.27;9.80;;;;;;;;;;5116803;28;20028;-82
2022/05/03 04:20:01;;;;;;;14.38;9.63;;;;;;;;;;5118151;28;20027;-82
2022/05/03 04:22:27;;;;;;;13.55;9.77;;;;;;;;;;5117320;28;20023;-82
2022/05/03 04:24:53;;;;;;;14.20;9.82;;;;;;;;;;5132141;27;20019;-82
2022/05/03 04:27:20;;;;;;;14.77;11.50;;;;;;;;;;5138119;27;20035;-82
2022/05/03 04:29:46;;;;;;;14.05;10.00;;;;;;;;;;5138098;27;20390;-82
2022/05/03 04:32:12;;;;;;;13.75;9.80;;;;;;;;;;5137076;27;20236;-82
2022/05/03 04:34:38;;;;;;;13.52;10.57;;;;;;;;;;5138048;27;20019;-82
2022/05/03 04:37:04;;;;;;;14.43;10.82;;;;;;;;;;5137751;27;20015;-82
2022/05/03 04:39:30;;;;;;;14.77;11.15;;;;;;;;;;5138011;28;20054;-82
2022/05/03 04:41:56;;;;;;;15.20;12.02;;;;;;;;;;5137551;28;20546;-82
2022/05/03 04:44:22;;;;;;;15.65;11.90;;;;;;;;;;5138358;28;20054;-82
2022/05/03 04:46:48;;;;;;;15.45;11.25;;;;;;;;;;5136427;27;20106;-80
2022/05/03 04:49:14;;;;;;;13.98;10.73;;;;;;;;;;5124592;28;20047;-82
2022/05/03 04:51:40;;;;;;;15.55;11.73;;;;;;;;;;5136201;28;20114;-82
2022/05/03 04:54:06;;;;;;;16.00;11.52;;;;;;;;;;5137166;28;20050;-82
2022/05/03 04:56:32;;;;;;;17.30;12.73;;;;;;;;;;5119887;28;20491;-82
2022/05/03 04:59:01;;;;;;;18.77;13.00;;;;;;;;;;5117299;28;20023;-82
2022/05/03 05:01:27;;;;;;;19.08;12.57;;;;;;;;;;5117280;28;20077;-82
2022/05/03 05:03:53;;;;;;;17.15;12.52;;;;;;;;;;5123745;27;20027;-82
2022/05/03 05:06:19;;;;;;;19.17;13.02;;;;;;;;;;5124733;27;20440;-82
2022/05/03 05:08:45;;;;;;;19.63;12.65;;;;;;;;;;5121225;28;20020;-82
2022/05/03 05:11:11;;;;;;;20.40;13.43;;;;;;;;;;5118002;28;20047;-82
2022/05/03 05:13:38;;;;;;;19.90;14.35;;;;;;;;;;5120510;28;20081;-82
2022/05/03 05:16:05;;;;;;;20.15;13.55;;;;;;;;;;5120149;28;20051;-82
2022/05/03 05:18:31;;;;;;;22.48;13.65;;;;;;;;;;5119786;28;20430;-82
2022/05/03 05:20:57;;;;;;;21.65;14.63;;;;;;;;;;5121334;28;20059;-82
2022/05/03 05:23:23;;;;;;;19.40;14.10;;;;;;;;;;5121050;28;20433;-83
2022/05/03 05:25:49;;;;;;;21.23;14.52;;;;;;;;;;5121463;28;20051;-82
2022/05/03 05:28:16;;;;;;;19.13;14.70;;;;;;;;;;5121854;28;20080;-83
2022/05/03 05:30:42;;;;;;;20.48;15.00;;;;;;;;;;5120894;28;20024;-82
2022/05/03 05:33:08;;;;;;;18.40;14.05;;;;;;;;;;5120020;28;20032;-82
2022/05/03 05:35:35;;;;;;;17.08;14.10;;;;;;;;;;5119081;28;20367;-83
2022/05/03 05:38:01;;;;;;;23.75;15.43;;;;;;;;;;5120652;28;20024;-83
2022/05/03 05:40:27;;;;;;;21.60;15.80;;;;;;;;;;5119614;28;20032;-83
2022/05/03 05:42:53;;;;;;;20.27;14.65;;;;;;;;;;5119247;28;20087;-82
2022/05/03 05:45:19;;;;;;;17.83;14.07;;;;;;;;;;5121135;28;20055;-82
2022/05/03 05:47:45;;;;;;;19.42;13.68;;;;;;;;;;5119743;28;20020;-83
2022/05/03 05:50:11;;;;;;;19.83;13.13;;;;;;;;;;5120285;28;20382;-82
2022/05/03 05:55:22;;;;;;;15.77;12.43;;;;;;;;;;5126693;28;20080;-83
2022/05/03 05:57:48;;;;;;;18.35;13.05;;;;;;;;;;5123319;28;20023;-81
2022/05/03 06:00:15;;;;;;;27.67;15.23;;;;;;;;;;5120532;28;20069;-81
2022/05/03 06:02:41;;;;;;;16.98;12.07;;;;;;;;;;5118930;28;20031;-81
2022/05/03 06:05:07;;;;;;;17.80;13.50;;;;;;;;;;5120497;28;20025;-81
2022/05/03 06:07:33;;;;;;;19.10;12.70;;;;;;;;;;5121383;28;20030;-81
2022/05/03 06:09:59;;;;;;;17.10;13.07;;;;;;;;;;5120255;28;20027;-81
2022/05/03 06:12:25;;;;;;;15.98;12.52;;;;;;;;;;5121799;28;20043;-82
2022/05/03 06:14:52;;;;;;;16.77;12.75;;;;;;;;;;5121496;28;20020;-82
2022/05/03 06:17:18;;;;;;;14.80;12.07;;;;;;;;;;5121266;28;20047;-82
2022/05/03 06:19:44;;;;;;;17.98;12.57;;;;;;;;;;5120198;28;20398;-82
2022/05/03 06:22:10;;;;;;;17.77;12.75;;;;;;;;;;5120556;28;20020;-83
2022/05/03 06:24:38;;;;;;;18.15;12.05;;;;;;;;;;5119133;28;20394;-83
2022/05/03 06:27:04;;;;;;;13.77;11.90;;;;;;;;;;5118249;28;20020;-83
2022/05/03 06:29:32;;;;;;;15.80;11.88;;;;;;;;;;5118369;28;20375;-82
2022/05/03 06:31:59;;;;;;;14.98;12.35;;;;;;;;;;5119623;27;20015;-83
2022/05/03 06:34:25;;;;;;;13.27;10.95;;;;;;;;;;5117264;28;20026;-83
2022/05/03 06:36:51;;;;;;;15.77;11.02;;;;;;;;;;5117397;28;20034;-83
2022/05/03 06:39:17;;;;;;;15.25;12.13;;;;;;;;;;5117824;28;20083;-83
2022/05/03 06:41:43;;;;;;;18.00;13.48;;;;;;;;;;5117257;28;20417;-82
2022/05/03 06:44:09;;;;;;;13.20;11.70;;;;;;;;;;5119049;28;20115;-83
2022/05/03 06:46:35;;;;;;;16.63;12.85;;;;;;;;;;5118676;28;20019;-83
2022/05/03 06:49:01;;;;;;;12.05;10.60;;;;;;;;;;5119564;28;20020;-83
2022/05/03 06:51:27;;;;;;;14.32;11.52;;;;;;;;;;5118060;28;20012;-82
2022/05/03 06:53:54;;;;;;;13.93;11.45;;;;;;;;;;5116629;28;20478;-82
2022/05/03 06:56:20;;;;;;;12.80;10.70;;;;;;;;;;5118645;28;20026;-83
2022/05/03 06:58:46;;;;;;;18.00;12.05;;;;;;;;;;5118076;28;20024;-83
2022/05/03 07:01:13;;;;;;;13.32;11.55;;;;;;;;;;5116474;28;20058;-82
2022/05/03 07:03:40;;;;;;;14.60;12.25;;;;;;;;;;5116871;28;20030;-83
2022/05/03 07:06:06;;;;;;;13.85;11.02;;;;;;;;;;5117861;28;20446;-82
2022/05/03 07:08:33;;;;;;;11.50;10.30;;;;;;;;;;5116978;28;20031;-82
2022/05/03 07:10:59;;;;;;;17.33;12.48;;;;;;;;;;5116525;28;20070;-82
2022/05/03 07:13:25;;;;;;;13.93;11.70;;;;;;;;;;5117175;28;20031;-82
2022/05/03 07:15:51;;;;;;;13.07;11.45;;;;;;;;;;5118506;28;20034;-82
2022/05/03 07:23:47;;;;;;;14.40;12.35;;;;;;;;;;5119559;28;20034;-83
2022/05/03 07:26:13;;;;;;;15.82;13.07;;;;;;;;;;5117096;28;20435;-83
2022/05/03 07:28:39;;;;;;;14.40;12.77;;;;;;;;;;5118587;28;20023;-84
2022/05/03 07:31:06;;;;;;;14.77;12.27;;;;;;;;;;5119895;28;20027;-83
2022/05/03 07:33:32;;;;;;;12.90;11.48;;;;;;;;;;5117440;28;20123;-83
2022/05/03 07:35:58;;;;;;;14.57;12.25;;;;;;;;;;5117832;28;20475;-82
2022/05/03 07:38:24;;;;;;;18.17;13.95;;;;;;;;;;5119115;28;20027;-83
2022/05/03 07:40:51;;;;;;;17.13;15.18;;;;;;;;;;5118560;28;20044;-82
2022/05/03 07:43:17;;;;;;;20.55;14.60;;;;;;;;;;5117274;28;20024;-83
2022/05/03 07:45:43;;;;;;;18.05;14.60;;;;;;;;;;5118717;28;20033;-83
2022/05/03 07:48:09;;;;;;;17.85;15.70;;;;;;;;;;5118000;28;20051;-81
2022/05/03 07:50:35;;;;;;;20.67;17.50;;;;;;;;;;5117443;28;20022;-82
2022/05/03 07:53:01;;;;;;;22.15;18.02;;;;;;;;;;5116822;28;20038;-83
2022/05/03 07:55:27;;;;;;;20.30;16.48;;;;;;;;;;5115868;28;20020;-83
2022/05/03 07:57:53;;;;;;;19.73;16.77;;;;;;;;;;5116503;28;20380;-82
2022/05/03 08:00:19;;;;;;;20.48;17.60;;;;;;;;;;5116164;28;20069;-83
2022/05/03 08:02:45;;;;;;;20.30;17.83;;;;;;;;;;5115394;28;20019;-83
2022/05/03 08:05:11;;;;;;;22.35;18.05;;;;;;;;;;5116800;28;20016;-82
2022/05/03 08:07:37;;;;;;;17.73;15.68;;;;;;;;;;5115541;28;20019;-83
2022/05/03 08:10:04;;;;;;;24.35;18.60;;;;;;;;;;5116292;28;20024;-83
2022/05/03 08:12:30;;;;;;;19.65;17.15;;;;;;;;;;5115337;28;20108;-82
2022/05/03 08:14:56;;;;;;;24.13;18.80;;;;;;;;;;5115065;28;20033;-83
2022/05/03 08:17:28;;;;;;;24.92;19.35;;;;;;;;;;5115526;28;20044;-82
2022/05/03 08:19:54;;;;;;;18.02;15.20;;;;;;;;;;5115928;28;20019;-82
2022/05/03 08:22:21;;;;;;;19.55;16.48;;;;;;;;;;5116730;28;20471;-82
2022/05/03 08:24:47;;;;;;;17.17;15.05;;;;;;;;;;5116514;28;20028;-82
2022/05/03 08:27:13;;;;;;;21.05;15.57;;;;;;;;;;5116744;28;20072;-83
2022/05/03 08:29:39;;;;;;;16.23;14.43;;;;;;;;;;5116174;28;20028;-83
2022/05/03 08:32:05;;;;;;;21.52;18.77;;;;;;;;;;5115851;28;20027;-83
2022/05/03 08:34:31;;;;;;;19.58;17.50;;;;;;;;;;5117488;28;20027;-83
2022/05/03 08:42:30;;;;;;;20.08;16.60;;;;;;;;;;5116511;28;20038;-83
2022/05/03 08:44:57;;;;;;;18.15;15.32;;;;;;;;;;5116485;28;20022;-83
2022/05/03 08:47:25;;;;;;;17.83;15.93;;;;;;;;;;5115553;28;20023;-83
2022/05/03 08:49:51;;;;;;;18.83;16.00;;;;;;;;;;5117251;28;20019;-83
2022/05/03 08:52:17;;;;;;;18.63;16.52;;;;;;;;;;5117093;28;20030;-82
2022/05/03 08:54:44;;;;;;;19.00;16.30;;;;;;;;;;5116805;28;20513;-83
2022/05/03 08:57:10;;;;;;;18.00;15.43;;;;;;;;;;5115861;28;20077;-83
2022/05/03 08:59:36;;;;;;;16.30;14.60;;;;;;;;;;5116881;28;20084;-81
2022/05/03 09:02:03;;;;;;;18.33;15.98;;;;;;;;;;5116893;28;20035;-82
2022/05/03 09:04:29;;;;;;;22.17;15.95;;;;;;;;;;5115106;28;20135;-82
2022/05/03 09:06:55;;;;;;;19.20;16.50;;;;;;;;;;5116656;28;20063;-83
2022/05/03 09:09:22;;;;;;;13.55;10.93;;;;;;;;;;5116908;28;20110;-83
2022/05/03 09:11:49;;;;;;;14.65;11.77;;;;;;;;;;5116759;28;20040;-82
2022/05/03 09:14:34;;;;;;;12.35;10.48;;;;;;;;;;5116831;28;20038;-83
2022/05/03 09:17:02;;;;;;;14.18;11.65;;;;;;;;;;5117584;28;20042;-83
2022/05/03 09:19:28;;;;;;;11.30;9.60;;;;;;;;;;5117272;28;20039;-83
2022/05/03 09:24:57;;;;;;;13.15;10.93;;;;;;;;;;5117969;28;20061;-82
2022/05/03 09:27:24;;;;;;;11.40;9.90;;;;;;;;;;5117246;28;20069;-82
2022/05/03 09:30:04;;;;;;;11.77;9.98;;;;;;;;;;5117401;28;20522;-82
2022/05/03 09:32:44;;;;;;;13.02;11.35;;;;;;;;;;5117607;28;20050;-83
2022/05/03 09:35:28;;;;;;;12.98;11.00;;;;;;;;;;5116873;28;20020;-82
2022/05/03 09:37:54;;;;;;;13.70;11.00;;;;;;;;;;5116495;28;20051;-83
2022/05/03 09:40:20;;;;;;;15.85;12.15;;;;;;;;;;5116790;28;20026;-82
2022/05/03 09:42:54;;;;;;;13.02;10.30;;;;;;;;;;5116788;28;20063;-82
2022/05/03 09:45:24;;;;;;;12.38;10.45;;;;;;;;;;5116282;28;20069;-83
2022/05/03 09:47:52;;;;;;;13.52;9.40;;;;;;;;;;5117601;28;20444;-83
2022/05/03 09:50:26;;;;;;;12.90;10.15;;;;;;;;;;5119133;28;20024;-83
2022/05/03 09:52:53;;;;;;;11.82;8.50;;;;;;;;;;5120798;28;20054;-83
2022/05/03 09:55:26;;;;;;;10.95;7.97;;;;;;;;;;5120329;28;20053;-83
2022/05/03 09:57:53;;;;;;;11.98;9.70;;;;;;;;;;5120665;28;20398;-83
2022/05/03 10:00:19;;;;;;;13.63;9.40;;;;;;;;;;5119520;28;20023;-83
2022/05/03 10:02:47;;;;;;;10.70;9.43;;;;;;;;;;5121554;28;20610;-83
2022/05/03 10:05:13;;;;;;;11.63;9.43;;;;;;;;;;5119581;28;20024;-83
2022/05/03 10:07:42;;;;;;;10.77;9.18;;;;;;;;;;5120137;28;20035;-83
2022/05/03 10:10:08;;;;;;;10.30;6.95;;;;;;;;;;5119224;28;20016;-82
2022/05/03 10:12:37;;;;;;;8.30;6.25;;;;;;;;;;5120077;28;20105;-82
2022/05/03 10:15:04;;;;;;;9.45;5.70;;;;;;;;;;5118020;28;20376;-81
2022/05/03 10:20:42;;;;;;;8.70;6.85;;;;;;;;;;5119198;28;20095;-82
2022/05/03 10:23:30;;;;;;;13.43;7.43;;;;;;;;;;5119447;28;20030;-82
2022/05/03 10:25:58;;;;;;;7.55;5.90;;;;;;;;;;5119326;28;20027;-83
2022/05/03 10:28:24;;;;;;;7.43;4.93;;;;;;;;;;5119307;28;20058;-83
2022/05/03 10:31:07;;;;;;;7.63;5.60;;;;;;;;;;5119338;28;20020;-83
2022/05/03 10:33:35;;;;;;;;;;;;;;;;;;5119623;28;20027;-83
2022/05/03 10:36:01;;;;;;;7.78;5.13;;;;;;;;;;5117929;28;19925;-83
2022/05/03 10:38:38;;;;;;;8.65;6.00;;;;;;;;;;5118619;28;20024;-83
2022/05/03 10:41:11;;;;;;;7.57;5.55;;;;;;;;;;5120934;28;20024;-82
2022/05/03 10:43:38;;;;;;;8.15;5.43;;;;;;;;;;5119533;28;20138;-83
2022/05/03 10:46:11;;;;;;;8.20;5.28;;;;;;;;;;5121377;28;20023;-82
2022/05/03 10:48:41;;;;;;;7.65;6.68;;;;;;;;;;5122847;28;20073;-83
2022/05/03 10:51:08;;;;;;;6.38;4.80;;;;;;;;;;5120505;28;20126;-82
2022/05/03 10:53:35;;;;;;;11.82;6.00;;;;;;;;;;5119075;28;20107;-82
2022/05/03 10:56:07;;;;;;;6.63;4.45;;;;;;;;;;5122350;28;20035;-84
2022/05/03 10:58:34;;;;;;;7.60;4.85;;;;;;;;;;5122343;28;20016;-84
2022/05/03 11:01:20;;;;;;;8.88;5.50;;;;;;;;;;5121639;28;20023;-83
2022/05/03 11:03:51;;;;;;;6.07;4.72;;;;;;;;;;5120732;28;20046;-83
2022/05/03 11:06:25;;;;;;;8.60;5.68;;;;;;;;;;5119460;28;20016;-81
2022/05/03 11:11:38;;;;;;;8.10;5.30;;;;;;;;;;5123226;28;20112;-83
2022/05/03 11:14:24;;;;;;;6.80;5.00;;;;;;;;;;5124200;28;20042;-82
2022/05/03 11:17:14;;;;;;;6.75;5.63;;;;;;;;;;5110813;28;20083;-82
2022/05/03 11:19:51;;;;;;;6.82;5.40;;;;;;;;;;5123297;28;20046;-81
2022/05/03 11:22:17;;;;;;;8.35;5.30;;;;;;;;;;5121976;28;20087;-82
2022/05/03 11:24:44;;;;;;;6.35;4.25;;;;;;;;;;5122492;28;20024;-82
2022/05/03 11:27:10;;;;;;;8.30;5.35;;;;;;;;;;5121326;28;20043;-81
2022/05/03 11:29:37;;;;;;;7.57;4.32;;;;;;;;;;5121941;28;20034;-81
2022/05/03 11:32:06;;;;;;;5.53;4.30;;;;;;;;;;5124491;28;20034;-82
2022/05/03 11:34:32;;;;;;;5.93;4.82;;;;;;;;;;5127595;28;20027;-82
2022/05/03 11:36:58;;;;;;;6.45;4.93;;;;;;;;;;5139862;28;20026;-82
2022/05/03 11:39:25;;;;;;;6.40;4.82;;;;;;;;;;5139893;28;20094;-81
2022/05/03 11:41:51;;;;;;;6.78;5.07;;;;;;;;;;5138892;28;20079;-79
2022/05/03 11:44:17;;;;;;;8.10;4.78;;;;;;;;;;5138410;28;20117;-80
2022/05/03 11:46:44;;;;;;;8.10;5.30;;;;;;;;;;5138608;28;20038;-80
2022/05/03 11:49:11;;;;;;;7.15;4.82;;;;;;;;;;5126337;28;20026;-82
2022/05/03 11:57:35;;;;;;;7.20;4.57;;;;;;;;;;5120396;28;20494;-82
2022/05/03 12:00:03;;;;;;;7.05;4.93;;;;;;;;;;5115691;28;20035;-81
2022/05/03 12:02:33;;;;;;;7.18;5.45;;;;;;;;;;5118651;28;20030;-83
2022/05/03 12:04:59;;;;;;;7.78;4.85;;;;;;;;;;5117369;28;20055;-82
2022/05/03 12:07:25;;;;;;;6.70;5.03;;;;;;;;;;5116826;28;20693;-83
2022/05/03 12:09:51;;;;;;;6.63;4.63;;;;;;;;;;5116279;28;20368;-81
2022/05/03 12:12:45;;;;;;;6.40;4.57;;;;;;;;;;5120560;28;20061;-83
2022/05/03 12:15:28;;;;;;;6.72;5.97;;;;;;;;;;5125306;28;20027;-81
2022/05/03 12:17:54;;;;;;;8.05;5.97;;;;;;;;;;5138889;28;19999;-80
2022/05/03 12:20:21;;;;;;;6.75;4.90;;;;;;;;;;5138914;28;20043;-81
2022/05/03 12:23:08;;;;;;;7.55;5.25;;;;;;;;;;5137788;28;20020;-82
2022/05/03 12:25:34;;;;;;;7.88;5.47;;;;;;;;;;5129714;28;20027;-81
2022/05/03 12:31:05;;;;;;;10.75;5.82;;;;;;;;;;5118606;28;20019;-81
2022/05/03 12:33:32;;;;;;;5.38;3.80;;;;;;;;;;5116619;28;20422;-82
2022/05/03 12:35:59;;;;;;;6.47;3.60;;;;;;;;;;5113812;28;20020;-81
2022/05/03 12:38:25;;;;;;;5.80;3.00;;;;;;;;;;5117211;28;20016;-81
2022/05/03 12:40:53;;;;;;;5.47;3.10;;;;;;;;;;5117210;28;20024;-81
2022/05/03 12:43:21;;;;;;;4.55;2.92;;;;;;;;;;5114919;28;20028;-82
2022/05/03 12:45:58;;;;;;;5.82;3.47;;;;;;;;;;5117456;28;20087;-81
2022/05/03 12:48:24;;;;;;;6.10;3.35;;;;;;;;;;5117716;28;20020;-81
2022/05/03 12:50:50;;;;;;;5.78;3.10;;;;;;;;;;5117241;28;20024;-81
2022/05/03 12:59:10;;;;;;;6.30;3.55;;;;;;;;;;5118083;28;20460;-81
2022/05/03 13:01:38;;;;;;;6.75;3.10;;;;;;;;;;5118518;28;20475;-81
2022/05/03 13:04:04;;;;;;;7.10;3.50;;;;;;;;;;5117699;28;20019;-81
2022/05/03 13:06:30;;;;;;;6.07;3.63;;;;;;;;;;5117253;28;20024;-83
2022/05/03 13:08:56;;;;;;;6.88;3.50;;;;;;;;;;5117882;28;20026;-82
2022/05/03 13:11:22;;;;;;;6.63;3.22;;;;;;;;;;5116200;28;20398;-83
2022/05/03 13:13:50;;;;;;;5.63;3.05;;;;;;;;;;5116439;28;20548;-82
2022/05/03 13:16:16;;;;;;;4.90;2.95;;;;;;;;;;5115252;28;20023;-82
2022/05/03 13:18:44;;;;;;;5.32;2.80;;;;;;;;;;5115709;28;20030;-82
2022/05/03 13:21:10;;;;;;;6.28;3.33;;;;;;;;;;5115109;28;20028;-84
2022/05/03 13:23:36;;;;;;;5.75;3.28;;;;;;;;;;5115709;27;20077;-81
2022/05/03 13:26:02;;;;;;;7.97;3.40;;;;;;;;;;5119686;28;20019;-81
2022/05/03 13:28:28;;;;;;;6.90;3.08;;;;;;;;;;5121260;28;20020;-82
2022/05/03 13:30:54;;;;;;;4.65;3.25;;;;;;;;;;5121604;28;20035;-83
2022/05/03 13:33:20;;;;;;;5.15;3.30;;;;;;;;;;5121104;28;20133;-83
2022/05/03 13:41:17;;;;;;;6.15;3.47;;;;;;;;;;5120118;28;20085;-82
2022/05/03 13:43:43;;;;;;;4.85;3.13;;;;;;;;;;5118964;28;20030;-83
2022/05/03 13:46:09;;;;;;;5.78;3.45;;;;;;;;;;5118447;28;20027;-82
2022/05/03 13:48:35;;;;;;;5.30;3.20;;;;;;;;;;5118218;28;20051;-81
2022/05/03 13:51:04;;;;;;;5.60;3.50;;;;;;;;;;5117321;28;20024;-82
2022/05/03 13:53:30;;;;;;;5.63;3.60;;;;;;;;;;5118763;28;20070;-82
2022/05/03 13:55:56;;;;;;;5.97;3.58;;;;;;;;;;5118997;28;20031;-83
2022/05/03 13:58:23;;;;;;;4.93;3.63;;;;;;;;;;5118940;28;20019;-82
2022/05/03 14:00:49;;;;;;;4.93;3.20;;;;;;;;;;5118393;28;20166;-83
2022/05/03 14:03:16;;;;;;;6.70;3.53;;;;;;;;;;5120808;28;20019;-81
2022/05/03 14:05:43;;;;;;;4.82;3.40;;;;;;;;;;5119232;28;20035;-82
2022/05/03 14:08:10;;;;;;;5.20;3.45;;;;;;;;;;5121100;28;20030;-82
2022/05/03 14:10:36;;;;;;;4.93;3.30;;;;;;;;;;5120229;28;20118;-82
2022/05/03 14:13:02;;;;;;;5.88;3.25;;;;;;;;;;5120103;28;20042;-82
2022/05/03 14:15:28;;;;;;;6.65;3.53;;;;;;;;;;5119446;28;20027;-82
2022/05/03 14:17:54;;;;;;;6.07;3.15;;;;;;;;;;5121171;28;20367;-82
2022/05/03 14:20:20;;;;;;;5.18;3.17;;;;;;;;;;5119504;28;20160;-82
2022/05/03 14:22:46;;;;;;;5.85;3.55;;;;;;;;;;5119145;28;20032;-82
2022/05/03 14:25:14;;;;;;;6.43;3.55;;;;;;;;;;5118424;28;20027;-82
2022/05/03 14:27:41;;;;;;;5.57;3.70;;;;;;;;;;5118151;28;20023;-82
2022/05/03 14:30:07;;;;;;;6.38;3.50;;;;;;;;;;5119520;28;20024;-82
2022/05/03 14:32:34;;;;;;;6.57;3.33;;;;;;;;;;5118468;28;20012;-82
2022/05/03 14:35:00;;;;;;;5.43;3.50;;;;;;;;;;5119639;28;20027;-80
2022/05/03 14:37:28;;;;;;;4.95;3.40;;;;;;;;;;5117846;28;20505;-80
2022/05/03 14:39:54;;;;;;;5.53;3.50;;;;;;;;;;5119328;28;20020;-80
2022/05/03 14:42:19;;;;;;;6.18;3.40;;;;;;;;;;5118855;28;20035;-81
2022/05/03 14:44:45;;;;;;;4.70;2.92;;;;;;;;;;5119085;28;20027;-82
2022/05/03 14:47:11;;;;;;;4.85;3.28;;;;;;;;;;5119838;28;20027;-82
2022/05/03 14:49:38;;;;;;;7.32;3.53;;;;;;;;;;5119970;28;20123;-82
2022/05/03 14:52:09;;;;;;;6.55;3.58;;;;;;;;;;5119318;28;20015;-81
2022/05/03 14:54:36;;;;;;;5.78;3.55;;;;;;;;;;5119430;28;20122;-81
2022/05/03 15:02:52;;;;;;;6.10;3.60;;;;;;;;;;5119837;28;20469;-82
2022/05/03 15:05:20;;;;;;;5.63;3.10;;;;;;;;;;5119686;28;20012;-81
2022/05/03 15:07:46;;;;;;;5.93;3.60;;;;;;;;;;5120308;28;20496;-81
2022/05/03 15:10:12;;;;;;;7.10;3.13;;;;;;;;;;5117771;28;20027;-81
2022/05/03 15:12:38;;;;;;;7.00;3.40;;;;;;;;;;5118311;28;20032;-82
2022/05/03 15:15:05;;;;;;;5.60;3.40;;;;;;;;;;5119300;28;20479;-82
2022/05/03 15:17:31;;;;;;;5.63;3.22;;;;;;;;;;5119152;28;20133;-81
2022/05/03 15:19:59;;;;;;;5.53;3.40;;;;;;;;;;5117229;28;20430;-82
2022/05/03 15:25:10;;;;;;;5.90;3.47;;;;;;;;;;5120352;28;20051;-82
2022/05/03 15:27:36;;;;;;;5.57;3.33;;;;;;;;;;5119191;28;20028;-81
2022/05/03 15:30:03;;;;;;;6.25;3.42;;;;;;;;;;5119048;28;20475;-82
2022/05/03 15:32:30;;;;;;;5.30;3.47;;;;;;;;;;5120775;28;20019;-82
2022/05/03 15:34:57;;;;;;;6.53;3.28;;;;;;;;;;5119602;28;20024;-81
2022/05/03 15:37:23;;;;;;;5.15;2.90;;;;;;;;;;5121165;28;20030;-82